Time;durP1;ratioP1;P1;durP2;ratioP2;P2;SDS_P1;SDS_P2;PMS_P1;PMS_P2;Temp;Humidity;BMP_temperature;BMP_pressure;BME280_temperature;BME280_humidity;BME280_pressure;Samples;Min_cycle;Max_cycle;Signal;HPM_P1;HPM_P2
2023/09/26 00:00:22;;;;;;;2.90;2.70;;;;;;;;;;5003097;28;20187;-51
2023/09/26 00:02:49;;;;;;;2.90;2.70;;;;;;;;;;5004206;28;20197;-50
2023/09/26 00:05:15;;;;;;;2.93;2.57;;;;;;;;;;5002866;28;20271;-49
2023/09/26 00:07:42;;;;;;;2.50;2.30;;;;;;;;;;5007142;28;20218;-50
2023/09/26 00:10:10;;;;;;;5.57;2.87;;;;;;;;;;5005735;28;20241;-51
2023/09/26 00:12:37;;;;;;;3.97;2.40;;;;;;;;;;5005835;28;20565;-50
2023/09/26 00:15:04;;;;;;;3.10;2.80;;;;;;;;;;5005489;28;20204;-50
2023/09/26 00:17:30;;;;;;;3.47;3.00;;;;;;;;;;5003263;28;20607;-52
2023/09/26 00:19:57;;;;;;;4.33;2.90;;;;;;;;;;5005499;28;20709;-50
2023/09/26 00:22:23;;;;;;;4.30;2.77;;;;;;;;;;5003908;28;20183;-50
2023/09/26 00:24:49;;;;;;;4.07;2.97;;;;;;;;;;5008278;28;20206;-52
2023/09/26 00:27:17;;;;;;;3.57;2.40;;;;;;;;;;5003841;28;20290;-50
2023/09/26 00:29:44;;;;;;;2.87;2.40;;;;;;;;;;5008425;28;20559;-51
2023/09/26 00:32:11;;;;;;;3.07;2.77;;;;;;;;;;5007439;28;20653;-50
2023/09/26 00:34:37;;;;;;;3.10;2.20;;;;;;;;;;5006343;28;20528;-51
2023/09/26 00:37:03;;;;;;;3.00;2.57;;;;;;;;;;5009799;28;20513;-50
2023/09/26 00:39:30;;;;;;;3.53;2.93;;;;;;;;;;5009559;28;20560;-50
2023/09/26 00:41:56;;;;;;;3.13;2.10;;;;;;;;;;5006568;28;20184;-50
2023/09/26 00:44:23;;;;;;;2.70;2.50;;;;;;;;;;5008926;28;20201;-52
2023/09/26 00:46:49;;;;;;;2.40;2.20;;;;;;;;;;5008335;28;20274;-50
2023/09/26 00:49:15;;;;;;;2.60;2.40;;;;;;;;;;5007772;28;20186;-53
2023/09/26 00:51:44;;;;;;;3.13;2.30;;;;;;;;;;5007640;28;20278;-53
2023/09/26 00:54:15;;;;;;;2.97;2.63;;;;;;;;;;5009983;28;20186;-53
2023/09/26 00:56:42;;;;;;;2.60;2.40;;;;;;;;;;4984528;28;20175;-53
2023/09/26 00:59:08;;;;;;;2.67;2.40;;;;;;;;;;5007097;28;20183;-52
2023/09/26 01:01:35;;;;;;;2.70;2.50;;;;;;;;;;5006841;28;20182;-52
2023/09/26 01:04:01;;;;;;;2.67;2.47;;;;;;;;;;5006985;28;20187;-52
2023/09/26 01:06:27;;;;;;;3.17;2.20;;;;;;;;;;4983293;28;20209;-52
2023/09/26 01:08:54;;;;;;;2.53;2.33;;;;;;;;;;5008949;28;20265;-52
2023/09/26 01:11:20;;;;;;;3.17;2.80;;;;;;;;;;5005721;28;20756;-52
2023/09/26 01:13:46;;;;;;;3.60;2.37;;;;;;;;;;5002712;28;20389;-52
2023/09/26 01:16:14;;;;;;;2.23;2.07;;;;;;;;;;5007973;28;20187;-52
2023/09/26 01:18:40;;;;;;;6.40;2.80;;;;;;;;;;5004996;28;20237;-52
2023/09/26 01:21:07;;;;;;;2.43;2.23;;;;;;;;;;5005545;28;20187;-52
2023/09/26 01:23:35;;;;;;;2.50;2.27;;;;;;;;;;5006788;28;20190;-52
2023/09/26 01:26:01;;;;;;;2.43;2.17;;;;;;;;;;5007982;28;20208;-52
2023/09/26 01:28:27;;;;;;;3.30;2.57;;;;;;;;;;4985186;28;20183;-53
2023/09/26 01:30:53;;;;;;;2.60;2.40;;;;;;;;;;5006832;28;20309;-53
2023/09/26 01:33:21;;;;;;;3.03;2.23;;;;;;;;;;5003657;28;20565;-52
2023/09/26 01:35:51;;;;;;;2.13;1.93;;;;;;;;;;5006144;28;20190;-53
2023/09/26 01:38:19;;;;;;;2.30;2.13;;;;;;;;;;5004452;28;20557;-52
2023/09/26 01:40:46;;;;;;;3.03;2.60;;;;;;;;;;5008120;28;20724;-53
2023/09/26 01:43:12;;;;;;;2.40;2.20;;;;;;;;;;5006901;28;20778;-52
2023/09/26 01:45:38;;;;;;;2.40;2.20;;;;;;;;;;5007694;28;20624;-53
2023/09/26 01:48:05;;;;;;;2.50;2.30;;;;;;;;;;5007967;28;20666;-52
2023/09/26 01:50:32;;;;;;;2.50;2.30;;;;;;;;;;4988491;28;20182;-52
2023/09/26 01:52:59;;;;;;;2.43;2.23;;;;;;;;;;5004318;28;20179;-52
2023/09/26 01:55:25;;;;;;;2.70;2.50;;;;;;;;;;5007661;28;20189;-53
2023/09/26 01:57:51;;;;;;;2.83;2.63;;;;;;;;;;5004425;28;20269;-53
2023/09/26 02:00:19;;;;;;;3.70;2.33;;;;;;;;;;5004159;28;20233;-53
2023/09/26 02:02:46;;;;;;;2.57;2.37;;;;;;;;;;5003305;28;20653;-53
2023/09/26 02:05:13;;;;;;;4.10;2.93;;;;;;;;;;5005164;28;20206;-53
2023/09/26 02:07:40;;;;;;;4.17;2.13;;;;;;;;;;5006588;28;20178;-54
2023/09/26 02:10:07;;;;;;;4.70;2.50;;;;;;;;;;5000774;28;20658;-53
2023/09/26 02:12:34;;;;;;;2.60;2.40;;;;;;;;;;5005938;28;20182;-53
2023/09/26 02:15:05;;;;;;;2.87;2.13;;;;;;;;;;5004901;28;20194;-53
2023/09/26 02:17:33;;;;;;;2.90;2.23;;;;;;;;;;5004288;28;20281;-53
2023/09/26 02:20:00;;;;;;;2.30;2.10;;;;;;;;;;5006459;28;20183;-53
2023/09/26 02:22:26;;;;;;;2.80;2.60;;;;;;;;;;5003290;28;20642;-53
2023/09/26 02:24:53;;;;;;;4.23;2.20;;;;;;;;;;5003219;28;20700;-53
2023/09/26 02:27:19;;;;;;;3.60;2.30;;;;;;;;;;4984891;28;20182;-53
2023/09/26 02:29:46;;;;;;;2.40;2.17;;;;;;;;;;5001828;28;20696;-53
2023/09/26 02:32:13;;;;;;;2.33;2.13;;;;;;;;;;5003505;28;20226;-52
2023/09/26 02:34:39;;;;;;;5.67;2.47;;;;;;;;;;5005589;28;20190;-53
2023/09/26 02:37:05;;;;;;;2.67;2.47;;;;;;;;;;5007292;28;20182;-53
2023/09/26 02:39:31;;;;;;;2.43;2.23;;;;;;;;;;5005853;28;20321;-53
2023/09/26 02:41:57;;;;;;;3.40;2.60;;;;;;;;;;5006661;28;20224;-53
2023/09/26 02:44:23;;;;;;;5.20;2.80;;;;;;;;;;5005976;28;20186;-52
2023/09/26 02:46:50;;;;;;;3.70;2.27;;;;;;;;;;5005598;28;21878;-53
2023/09/26 02:49:16;;;;;;;2.53;2.33;;;;;;;;;;5004306;28;20182;-53
2023/09/26 02:51:42;;;;;;;2.70;2.50;;;;;;;;;;5004827;28;20240;-53
2023/09/26 02:54:08;;;;;;;6.07;2.63;;;;;;;;;;4988843;28;20182;-53
2023/09/26 02:56:35;;;;;;;2.57;2.20;;;;;;;;;;4998594;28;20187;-52
2023/09/26 02:59:04;;;;;;;3.43;2.30;;;;;;;;;;5005794;28;20260;-53
2023/09/26 03:01:33;;;;;;;2.83;2.63;;;;;;;;;;5004228;28;20228;-52
2023/09/26 03:03:59;;;;;;;3.23;2.40;;;;;;;;;;5004761;28;20648;-53
2023/09/26 03:06:25;;;;;;;3.67;2.50;;;;;;;;;;5006308;28;20202;-53
2023/09/26 03:08:51;;;;;;;2.70;2.50;;;;;;;;;;5006581;28;20267;-54
2023/09/26 03:11:17;;;;;;;5.13;2.23;;;;;;;;;;5006488;28;20608;-54
2023/09/26 03:13:44;;;;;;;2.90;2.40;;;;;;;;;;5003881;28;20269;-53
2023/09/26 03:16:13;;;;;;;4.37;2.77;;;;;;;;;;5006206;28;20189;-54
2023/09/26 03:18:40;;;;;;;2.30;2.10;;;;;;;;;;5005590;28;20368;-53
2023/09/26 03:21:06;;;;;;;2.60;2.40;;;;;;;;;;5004685;28;20239;-54
2023/09/26 03:23:33;;;;;;;2.50;2.30;;;;;;;;;;4989403;28;20205;-54
2023/09/26 03:26:00;;;;;;;3.50;2.13;;;;;;;;;;4998779;28;20210;-53
2023/09/26 03:28:26;;;;;;;3.30;2.00;;;;;;;;;;5007373;28;20228;-53
2023/09/26 03:30:52;;;;;;;3.73;2.43;;;;;;;;;;5006250;28;20555;-53
2023/09/26 03:33:18;;;;;;;3.40;3.17;;;;;;;;;;5006809;28;20198;-53
2023/09/26 03:35:44;;;;;;;2.50;2.30;;;;;;;;;;5005322;28;20191;-54
2023/09/26 03:38:11;;;;;;;2.77;2.43;;;;;;;;;;5006499;28;20195;-54
2023/09/26 03:40:37;;;;;;;2.53;2.33;;;;;;;;;;5005915;28;20182;-54
2023/09/26 03:43:03;;;;;;;2.30;2.10;;;;;;;;;;5005300;28;20217;-52
2023/09/26 03:45:29;;;;;;;2.43;1.90;;;;;;;;;;5006103;28;20224;-52
2023/09/26 03:47:55;;;;;;;4.63;2.30;;;;;;;;;;5007644;28;20210;-53
2023/09/26 03:50:21;;;;;;;2.40;2.20;;;;;;;;;;5005483;28;20197;-54
2023/09/26 03:52:47;;;;;;;2.37;1.97;;;;;;;;;;5005419;28;20195;-54
2023/09/26 03:55:14;;;;;;;2.20;2.00;;;;;;;;;;4988940;28;20202;-53
2023/09/26 03:57:40;;;;;;;2.50;2.30;;;;;;;;;;4992943;28;20198;-53
2023/09/26 04:00:16;;;;;;;3.33;2.40;;;;;;;;;;5009677;28;20228;-53
2023/09/26 04:02:42;;;;;;;3.03;2.83;;;;;;;;;;5009965;28;20280;-53
2023/09/26 04:05:09;;;;;;;3.30;2.87;;;;;;;;;;5009253;28;20202;-53
2023/09/26 04:07:35;;;;;;;2.27;2.10;;;;;;;;;;4991916;28;20217;-53
2023/09/26 04:10:01;;;;;;;2.83;2.43;;;;;;;;;;5007402;28;20186;-53
2023/09/26 04:12:27;;;;;;;2.43;2.17;;;;;;;;;;5007250;28;20634;-53
2023/09/26 04:14:54;;;;;;;3.53;2.30;;;;;;;;;;5008562;28;20222;-53
2023/09/26 04:17:20;;;;;;;2.53;2.27;;;;;;;;;;5003419;28;20661;-53
2023/09/26 04:19:49;;;;;;;3.23;2.17;;;;;;;;;;5006431;28;20193;-52
2023/09/26 04:22:15;;;;;;;2.43;2.23;;;;;;;;;;5006539;28;20714;-52
2023/09/26 04:24:41;;;;;;;4.57;2.30;;;;;;;;;;5005817;28;20187;-52
2023/09/26 04:27:07;;;;;;;3.10;2.73;;;;;;;;;;5008005;28;20637;-51
2023/09/26 04:29:34;;;;;;;3.20;3.00;;;;;;;;;;5009953;28;20197;-52
2023/09/26 04:32:00;;;;;;;2.63;2.13;;;;;;;;;;5009253;28;20229;-52
2023/09/26 04:34:29;;;;;;;2.37;2.17;;;;;;;;;;5008463;28;20186;-52
2023/09/26 04:36:55;;;;;;;2.73;2.30;;;;;;;;;;4991235;28;20179;-52
2023/09/26 04:39:21;;;;;;;3.50;2.53;;;;;;;;;;5008875;28;20179;-53
2023/09/26 04:41:48;;;;;;;3.07;2.70;;;;;;;;;;4992787;28;20266;-52
2023/09/26 04:44:14;;;;;;;2.90;2.30;;;;;;;;;;5008333;28;20256;-52
2023/09/26 04:46:41;;;;;;;3.80;2.10;;;;;;;;;;5009123;28;20227;-52
2023/09/26 04:49:07;;;;;;;3.23;2.33;;;;;;;;;;5007046;28;20293;-52
2023/09/26 04:51:33;;;;;;;2.87;2.67;;;;;;;;;;5008115;28;20221;-53
2023/09/26 04:54:01;;;;;;;4.27;2.40;;;;;;;;;;5003261;28;20652;-52
2023/09/26 04:56:27;;;;;;;4.10;2.50;;;;;;;;;;5005393;28;20236;-52
2023/09/26 04:58:53;;;;;;;2.60;2.40;;;;;;;;;;5005726;28;20183;-52
2023/09/26 05:01:24;;;;;;;2.60;2.40;;;;;;;;;;4983706;28;20199;-52
2023/09/26 05:03:50;;;;;;;2.43;2.10;;;;;;;;;;4999124;28;20197;-52
2023/09/26 05:06:17;;;;;;;3.67;3.40;;;;;;;;;;5006125;28;20218;-52
2023/09/26 05:08:43;;;;;;;4.37;2.63;;;;;;;;;;5004568;28;20205;-52
2023/09/26 05:11:16;;;;;;;2.53;2.33;;;;;;;;;;5001309;28;20238;-52
2023/09/26 05:13:42;;;;;;;;;;;;;;;;;;5002740;28;20896;-52
2023/09/26 05:16:09;;;;;;;3.43;2.47;;;;;;;;;;5008787;28;20385;-52
2023/09/26 05:18:35;;;;;;;2.80;2.60;;;;;;;;;;5006318;28;20182;-52
2023/09/26 05:21:05;;;;;;;2.70;2.50;;;;;;;;;;5007615;28;20614;-52
2023/09/26 05:23:32;;;;;;;3.67;2.23;;;;;;;;;;5005518;28;20594;-52
2023/09/26 05:26:11;;;;;;;2.73;2.53;;;;;;;;;;5004595;28;20301;-52
2023/09/26 05:28:38;;;;;;;2.90;2.70;;;;;;;;;;5007482;28;20185;-52
2023/09/26 05:31:04;;;;;;;6.90;2.63;;;;;;;;;;5009342;28;20313;-50
2023/09/26 05:33:30;;;;;;;2.53;2.10;;;;;;;;;;5004317;28;20261;-49
2023/09/26 05:35:56;;;;;;;6.43;2.77;;;;;;;;;;5008829;28;20610;-55
2023/09/26 05:38:25;;;;;;;4.30;2.73;;;;;;;;;;5009651;28;20261;-48
2023/09/26 05:40:51;;;;;;;3.50;3.20;;;;;;;;;;5008701;28;20207;-48
2023/09/26 05:43:18;;;;;;;3.33;3.03;;;;;;;;;;5008783;28;20250;-47
2023/09/26 05:45:44;;;;;;;4.07;2.70;;;;;;;;;;4990710;28;20742;-47
2023/09/26 05:48:10;;;;;;;3.77;3.17;;;;;;;;;;5006103;28;20186;-49
2023/09/26 05:50:36;;;;;;;3.63;3.10;;;;;;;;;;5005658;28;20235;-48
2023/09/26 05:53:03;;;;;;;4.73;3.13;;;;;;;;;;5005615;28;20178;-48
2023/09/26 05:55:29;;;;;;;3.40;3.10;;;;;;;;;;5005396;28;20168;-47
2023/09/26 05:57:55;;;;;;;2.70;2.50;;;;;;;;;;5003707;28;20728;-50
2023/09/26 06:00:22;;;;;;;3.53;2.90;;;;;;;;;;5008871;28;20184;-49
2023/09/26 06:02:48;;;;;;;2.80;2.60;;;;;;;;;;5006768;28;20213;-50
2023/09/26 06:05:14;;;;;;;2.63;2.43;;;;;;;;;;5004953;28;20202;-50
2023/09/26 06:07:41;;;;;;;3.07;2.47;;;;;;;;;;5006473;28;20170;-51
2023/09/26 06:10:10;;;;;;;4.60;2.13;;;;;;;;;;5006479;28;20304;-49
2023/09/26 06:12:36;;;;;;;2.90;2.60;;;;;;;;;;5006947;28;20191;-50
2023/09/26 06:15:05;;;;;;;2.63;2.43;;;;;;;;;;5006919;28;20651;-50
2023/09/26 06:17:31;;;;;;;2.53;2.33;;;;;;;;;;5001509;28;20174;-51
2023/09/26 06:19:58;;;;;;;2.80;2.47;;;;;;;;;;5006309;28;20273;-51
2023/09/26 06:22:24;;;;;;;3.80;2.90;;;;;;;;;;5006634;28;20642;-50
2023/09/26 06:24:50;;;;;;;2.70;2.50;;;;;;;;;;5008229;28;20497;-51
2023/09/26 06:27:16;;;;;;;2.60;2.40;;;;;;;;;;5007901;28;20206;-50
2023/09/26 06:29:42;;;;;;;4.93;2.73;;;;;;;;;;5004367;28;20195;-53
2023/09/26 06:32:09;;;;;;;2.67;2.30;;;;;;;;;;5003216;28;20230;-51
2023/09/26 06:34:35;;;;;;;2.90;2.50;;;;;;;;;;5006147;28;20546;-51
2023/09/26 06:37:02;;;;;;;2.33;2.13;;;;;;;;;;5009601;28;20178;-50
2023/09/26 06:39:28;;;;;;;2.80;2.60;;;;;;;;;;5007269;28;20208;-52
2023/09/26 06:41:54;;;;;;;3.10;2.80;;;;;;;;;;5006964;28;20179;-52
2023/09/26 06:44:20;;;;;;;3.47;2.73;;;;;;;;;;5007509;28;20244;-52
2023/09/26 06:46:47;;;;;;;4.03;2.50;;;;;;;;;;4990517;28;20699;-53
2023/09/26 06:49:13;;;;;;;2.43;2.23;;;;;;;;;;5006490;28;20792;-53
2023/09/26 06:51:39;;;;;;;2.60;2.40;;;;;;;;;;5006827;28;20241;-53
2023/09/26 06:54:09;;;;;;;2.67;2.47;;;;;;;;;;5006027;28;20664;-53
2023/09/26 06:56:36;;;;;;;2.93;2.73;;;;;;;;;;4988914;28;20184;-52
2023/09/26 06:59:02;;;;;;;2.77;2.57;;;;;;;;;;4987232;28;20182;-53
2023/09/26 07:01:29;;;;;;;2.80;2.60;;;;;;;;;;5003344;28;20179;-53
2023/09/26 07:03:55;;;;;;;2.60;2.40;;;;;;;;;;5003764;28;20734;-52
2023/09/26 07:06:21;;;;;;;2.50;2.30;;;;;;;;;;5006922;28;20667;-53
2023/09/26 07:08:48;;;;;;;2.50;2.30;;;;;;;;;;5006065;28;20190;-52
2023/09/26 07:11:14;;;;;;;4.37;3.03;;;;;;;;;;5004300;28;20221;-53
2023/09/26 07:13:40;;;;;;;2.87;2.30;;;;;;;;;;5007043;28;20180;-52
2023/09/26 07:16:08;;;;;;;3.20;2.90;;;;;;;;;;5006485;28;20179;-53
2023/09/26 07:18:36;;;;;;;2.80;2.60;;;;;;;;;;5005594;28;20222;-52
2023/09/26 07:21:05;;;;;;;2.47;2.27;;;;;;;;;;5004172;28;20267;-53
2023/09/26 07:23:35;;;;;;;2.60;2.40;;;;;;;;;;5006909;28;20693;-53
2023/09/26 07:26:05;;;;;;;3.33;2.37;;;;;;;;;;5006354;28;20287;-52
2023/09/26 07:28:31;;;;;;;2.87;2.57;;;;;;;;;;5005659;28;20594;-53
2023/09/26 07:30:57;;;;;;;3.23;2.73;;;;;;;;;;5007787;28;20246;-53
2023/09/26 07:33:24;;;;;;;2.87;2.67;;;;;;;;;;5010456;28;20676;-53
2023/09/26 07:35:51;;;;;;;3.80;2.80;;;;;;;;;;5009500;28;20961;-53
2023/09/26 07:38:18;;;;;;;3.40;2.47;;;;;;;;;;5007169;28;20180;-53
2023/09/26 07:40:44;;;;;;;3.10;2.80;;;;;;;;;;4989218;28;20199;-53
2023/09/26 07:43:10;;;;;;;2.67;2.47;;;;;;;;;;5009235;28;20191;-53
2023/09/26 07:45:40;;;;;;;2.83;2.60;;;;;;;;;;4992687;28;20606;-53
2023/09/26 07:48:07;;;;;;;3.37;2.97;;;;;;;;;;5009238;28;20188;-53
2023/09/26 07:50:33;;;;;;;4.53;2.87;;;;;;;;;;5009939;28;20218;-51
2023/09/26 07:53:02;;;;;;;3.30;3.00;;;;;;;;;;5010843;28;20237;-51
2023/09/26 07:55:28;;;;;;;3.50;3.00;;;;;;;;;;5010278;28;20192;-52
2023/09/26 07:57:55;;;;;;;3.80;2.80;;;;;;;;;;4992074;28;20179;-51
2023/09/26 08:00:22;;;;;;;3.67;3.37;;;;;;;;;;5009558;28;20312;-50
2023/09/26 08:02:48;;;;;;;3.70;2.90;;;;;;;;;;5009534;28;20183;-51
2023/09/26 08:05:14;;;;;;;2.90;2.70;;;;;;;;;;5007836;28;20218;-52
2023/09/26 08:07:44;;;;;;;2.60;2.40;;;;;;;;;;5009242;28;20532;-51
2023/09/26 08:10:10;;;;;;;4.57;3.10;;;;;;;;;;5010073;28;20175;-51
2023/09/26 08:12:39;;;;;;;3.30;3.00;;;;;;;;;;5008552;28;20226;-51
2023/09/26 08:15:07;;;;;;;3.10;2.87;;;;;;;;;;5007210;28;20776;-51
2023/09/26 08:17:34;;;;;;;3.03;2.73;;;;;;;;;;5008281;28;20219;-51
2023/09/26 08:20:00;;;;;;;2.70;2.50;;;;;;;;;;5007372;28;20200;-51
2023/09/26 08:22:26;;;;;;;3.63;2.40;;;;;;;;;;5008619;28;20203;-50
2023/09/26 08:24:54;;;;;;;2.97;2.77;;;;;;;;;;5004102;28;20559;-50
2023/09/26 08:27:21;;;;;;;3.13;2.67;;;;;;;;;;5010266;28;20282;-50
2023/09/26 08:29:47;;;;;;;2.77;2.50;;;;;;;;;;5009374;28;20215;-51
2023/09/26 08:32:13;;;;;;;2.83;2.53;;;;;;;;;;5009437;28;20250;-50
2023/09/26 08:34:39;;;;;;;3.23;2.80;;;;;;;;;;5007448;28;20219;-49
2023/09/26 08:37:05;;;;;;;3.03;2.73;;;;;;;;;;5010147;28;20256;-50
2023/09/26 08:39:35;;;;;;;3.00;2.70;;;;;;;;;;5004454;28;21408;-50
2023/09/26 08:42:03;;;;;;;2.87;2.50;;;;;;;;;;4990109;28;20186;-50
2023/09/26 08:44:29;;;;;;;3.27;2.97;;;;;;;;;;5006313;28;20606;-50
2023/09/26 08:46:56;;;;;;;3.07;2.43;;;;;;;;;;5008179;28;20206;-51
2023/09/26 08:49:22;;;;;;;3.03;2.77;;;;;;;;;;5008681;28;20205;-49
2023/09/26 08:51:48;;;;;;;2.67;2.47;;;;;;;;;;5008147;28;20190;-49
2023/09/26 08:54:14;;;;;;;3.40;2.90;;;;;;;;;;5005578;28;20190;-50
2023/09/26 08:56:41;;;;;;;3.63;3.33;;;;;;;;;;5008895;28;20191;-49
2023/09/26 08:59:07;;;;;;;4.30;2.87;;;;;;;;;;4988897;28;20201;-51
2023/09/26 09:01:34;;;;;;;3.10;2.67;;;;;;;;;;5003201;28;20536;-53
2023/09/26 09:04:00;;;;;;;3.17;2.50;;;;;;;;;;5007945;28;20187;-53
2023/09/26 09:06:26;;;;;;;3.50;2.40;;;;;;;;;;5007357;28;20225;-53
2023/09/26 09:09:05;;;;;;;2.70;2.40;;;;;;;;;;5003556;28;20541;-53
2023/09/26 09:11:33;;;;;;;3.30;2.63;;;;;;;;;;5008502;28;20186;-56
2023/09/26 09:13:59;;;;;;;3.07;2.70;;;;;;;;;;5008910;28;20241;-53
2023/09/26 09:16:25;;;;;;;3.23;2.60;;;;;;;;;;4988660;28;20182;-54
2023/09/26 09:18:57;;;;;;;2.50;2.13;;;;;;;;;;5008379;28;20195;-53
2023/09/26 09:21:30;;;;;;;4.37;2.57;;;;;;;;;;5009660;28;20654;-54
2023/09/26 09:23:59;;;;;;;2.60;2.40;;;;;;;;;;5006646;28;20178;-53
2023/09/26 09:26:34;;;;;;;3.67;2.67;;;;;;;;;;5008087;28;20497;-54
2023/09/26 09:29:17;;;;;;;2.63;2.40;;;;;;;;;;5008743;28;20672;-53
2023/09/26 09:31:43;;;;;;;4.33;2.80;;;;;;;;;;5007445;28;20233;-54
2023/09/26 09:34:09;;;;;;;3.53;2.80;;;;;;;;;;5007143;28;20174;-54
2023/09/26 09:36:37;;;;;;;2.90;2.57;;;;;;;;;;5006903;28;20229;-53
2023/09/26 09:39:03;;;;;;;5.53;2.83;;;;;;;;;;5007088;28;20195;-54
2023/09/26 09:41:32;;;;;;;2.47;2.27;;;;;;;;;;5008369;28;20183;-54
2023/09/26 09:43:58;;;;;;;2.57;2.37;;;;;;;;;;5008510;28;20182;-53
2023/09/26 09:46:25;;;;;;;4.30;2.60;;;;;;;;;;5008475;28;20744;-53
2023/09/26 09:48:54;;;;;;;3.03;2.70;;;;;;;;;;5008065;28;20858;-53
2023/09/26 09:51:21;;;;;;;2.77;2.57;;;;;;;;;;5007868;28;20700;-54
2023/09/26 09:53:53;;;;;;;2.70;2.50;;;;;;;;;;5006985;28;20194;-54
2023/09/26 09:56:20;;;;;;;2.80;2.60;;;;;;;;;;5007020;28;20182;-54
2023/09/26 09:58:49;;;;;;;3.13;2.57;;;;;;;;;;5006147;28;20249;-53
2023/09/26 10:01:19;;;;;;;2.13;2.03;;;;;;;;;;5007900;28;20590;-54
2023/09/26 10:03:48;;;;;;;2.80;2.50;;;;;;;;;;5006590;28;20712;-53
2023/09/26 10:06:14;;;;;;;2.60;2.40;;;;;;;;;;5003102;28;20233;-54
2023/09/26 10:08:44;;;;;;;2.97;2.67;;;;;;;;;;5003800;28;20186;-54
2023/09/26 10:11:11;;;;;;;3.93;2.80;;;;;;;;;;5005944;28;20218;-55
2023/09/26 10:13:37;;;;;;;3.20;2.90;;;;;;;;;;5009338;28;20189;-55
2023/09/26 10:16:11;;;;;;;3.30;2.40;;;;;;;;;;5009379;28;20179;-55
2023/09/26 10:18:41;;;;;;;2.30;2.10;;;;;;;;;;5009254;28;20281;-55
2023/09/26 10:21:41;;;;;;;3.30;2.70;;;;;;;;;;5008326;28;20175;-55
2023/09/26 10:24:15;;;;;;;2.60;2.40;;;;;;;;;;4956804;28;20617;-56
2023/09/26 10:26:47;;;;;;;3.27;2.53;;;;;;;;;;5009146;28;20189;-55
2023/09/26 10:29:22;;;;;;;2.37;2.17;;;;;;;;;;5008667;28;20210;-55
2023/09/26 10:31:54;;;;;;;2.50;2.30;;;;;;;;;;5009210;28;20217;-55
2023/09/26 10:34:23;;;;;;;3.10;2.80;;;;;;;;;;5007984;28;20165;-55
2023/09/26 10:36:50;;;;;;;2.87;2.40;;;;;;;;;;5008812;28;20260;-55
2023/09/26 10:39:16;;;;;;;2.57;2.37;;;;;;;;;;4990872;28;20709;-55
2023/09/26 10:41:42;;;;;;;2.53;2.27;;;;;;;;;;5008885;28;20611;-55
2023/09/26 10:44:08;;;;;;;2.50;2.30;;;;;;;;;;5008685;28;20250;-55
2023/09/26 10:46:34;;;;;;;2.97;2.70;;;;;;;;;;5009068;28;20741;-55
2023/09/26 10:49:00;;;;;;;2.97;2.40;;;;;;;;;;5007892;28;20155;-56
2023/09/26 10:51:27;;;;;;;2.33;2.13;;;;;;;;;;5009148;28;20178;-56
2023/09/26 10:53:53;;;;;;;2.53;2.03;;;;;;;;;;5008404;28;20226;-55
2023/09/26 10:56:19;;;;;;;3.60;2.43;;;;;;;;;;5009470;28;20239;-56
2023/09/26 10:58:45;;;;;;;2.67;2.33;;;;;;;;;;5008480;28;20213;-55
2023/09/26 11:01:11;;;;;;;2.30;2.10;;;;;;;;;;5008918;28;20341;-55
2023/09/26 11:03:38;;;;;;;2.27;2.07;;;;;;;;;;5007700;28;20693;-54
2023/09/26 11:06:04;;;;;;;2.60;2.40;;;;;;;;;;5005549;28;20198;-54
2023/09/26 11:08:31;;;;;;;4.07;2.20;;;;;;;;;;4988081;28;20233;-55
2023/09/26 11:10:58;;;;;;;2.93;2.23;;;;;;;;;;5008638;28;20857;-55
2023/09/26 11:13:25;;;;;;;3.27;2.17;;;;;;;;;;5007454;28;20178;-55
2023/09/26 11:15:54;;;;;;;3.00;2.33;;;;;;;;;;5007002;28;20213;-55
2023/09/26 11:18:20;;;;;;;2.30;2.10;;;;;;;;;;5007758;28;20186;-55
2023/09/26 11:20:47;;;;;;;2.63;2.43;;;;;;;;;;5007268;28;20602;-52
2023/09/26 11:23:31;;;;;;;2.53;2.33;;;;;;;;;;5009103;28;20159;-52
2023/09/26 11:26:03;;;;;;;3.00;2.80;;;;;;;;;;5008313;28;20246;-51
2023/09/26 11:28:29;;;;;;;3.60;2.30;;;;;;;;;;5008381;28;20173;-51
2023/09/26 11:30:55;;;;;;;2.50;2.30;;;;;;;;;;5008010;28;20230;-51
2023/09/26 11:33:21;;;;;;;2.60;1.90;;;;;;;;;;5009398;28;20595;-52
2023/09/26 11:35:48;;;;;;;4.23;2.83;;;;;;;;;;5007329;28;20606;-51
2023/09/26 11:38:14;;;;;;;2.23;2.03;;;;;;;;;;5007772;28;20723;-51
2023/09/26 11:40:40;;;;;;;2.53;2.27;;;;;;;;;;5007330;28;20201;-52
2023/09/26 11:43:07;;;;;;;2.27;2.07;;;;;;;;;;4990821;28;20179;-51
2023/09/26 11:45:33;;;;;;;2.73;2.37;;;;;;;;;;5005013;28;20208;-52
2023/09/26 11:48:01;;;;;;;3.70;2.57;;;;;;;;;;5008523;28;20174;-50
2023/09/26 11:50:28;;;;;;;3.23;2.30;;;;;;;;;;5002073;28;20182;-51
2023/09/26 11:53:01;;;;;;;2.43;2.23;;;;;;;;;;4999832;28;20211;-51
2023/09/26 11:55:27;;;;;;;3.47;2.47;;;;;;;;;;5006034;28;20540;-52
2023/09/26 11:57:54;;;;;;;2.93;2.17;;;;;;;;;;5004822;28;20278;-51
2023/09/26 12:00:20;;;;;;;3.17;2.77;;;;;;;;;;5004578;28;20187;-51
2023/09/26 12:02:47;;;;;;;4.33;2.43;;;;;;;;;;5004531;28;20179;-51
2023/09/26 12:05:15;;;;;;;4.03;2.83;;;;;;;;;;4996071;28;20215;-53
2023/09/26 12:07:41;;;;;;;2.47;2.27;;;;;;;;;;5005764;28;20605;-53
2023/09/26 12:10:09;;;;;;;2.30;2.10;;;;;;;;;;4999604;28;20178;-53
2023/09/26 12:12:35;;;;;;;2.47;2.27;;;;;;;;;;5006561;28;20181;-51
2023/09/26 12:15:20;;;;;;;2.80;2.60;;;;;;;;;;4978692;28;20221;-53
2023/09/26 12:17:47;;;;;;;4.73;2.30;;;;;;;;;;5007176;28;20191;-51
2023/09/26 12:20:17;;;;;;;2.70;2.50;;;;;;;;;;5008067;28;20183;-52
2023/09/26 12:22:43;;;;;;;2.73;2.50;;;;;;;;;;5008391;28;20183;-52
2023/09/26 12:25:12;;;;;;;2.93;2.57;;;;;;;;;;5007648;28;20675;-51
2023/09/26 12:27:38;;;;;;;2.90;2.57;;;;;;;;;;5008344;28;20483;-51
2023/09/26 12:30:05;;;;;;;2.20;2.03;;;;;;;;;;5008259;28;20203;-52
2023/09/26 12:32:31;;;;;;;2.20;2.00;;;;;;;;;;5009575;28;20194;-53
2023/09/26 12:34:58;;;;;;;2.40;2.20;;;;;;;;;;5006783;28;20496;-52
2023/09/26 12:37:24;;;;;;;2.33;2.13;;;;;;;;;;5008187;28;20221;-51
2023/09/26 12:39:52;;;;;;;3.70;2.33;;;;;;;;;;5010009;28;20212;-53
2023/09/26 12:42:18;;;;;;;2.63;2.43;;;;;;;;;;5009442;28;20173;-52
2023/09/26 12:44:45;;;;;;;2.30;2.10;;;;;;;;;;5009676;28;20180;-52
2023/09/26 12:47:11;;;;;;;2.67;2.20;;;;;;;;;;5008596;28;20213;-51
2023/09/26 12:49:38;;;;;;;2.60;2.40;;;;;;;;;;5006194;28;20216;-52
2023/09/26 12:52:04;;;;;;;3.13;2.83;;;;;;;;;;5008314;28;20251;-51
2023/09/26 12:54:30;;;;;;;3.90;2.23;;;;;;;;;;5009729;28;20197;-51
2023/09/26 12:57:01;;;;;;;2.30;2.10;;;;;;;;;;5001637;28;20460;-51
2023/09/26 12:59:27;;;;;;;4.13;2.60;;;;;;;;;;4994105;28;20179;-52
2023/09/26 13:01:54;;;;;;;2.70;2.50;;;;;;;;;;5005680;28;20628;-51
2023/09/26 13:04:21;;;;;;;3.20;2.60;;;;;;;;;;5003024;28;20254;-50
2023/09/26 13:06:47;;;;;;;3.33;2.87;;;;;;;;;;5008158;28;20748;-50
2023/09/26 13:09:14;;;;;;;3.30;2.97;;;;;;;;;;5006144;28;20410;-49
2023/09/26 13:11:40;;;;;;;4.03;2.60;;;;;;;;;;5009572;28;20174;-50
2023/09/26 13:14:06;;;;;;;3.30;2.60;;;;;;;;;;5008533;28;20662;-52
2023/09/26 13:16:33;;;;;;;3.20;2.70;;;;;;;;;;5009873;28;20233;-48
2023/09/26 13:18:59;;;;;;;5.77;2.60;;;;;;;;;;5006555;28;20533;-50
2023/09/26 13:21:26;;;;;;;5.83;2.63;;;;;;;;;;5009856;28;20277;-50
2023/09/26 13:23:53;;;;;;;4.43;3.30;;;;;;;;;;5003781;28;20183;-50
2023/09/26 13:26:19;;;;;;;3.37;3.07;;;;;;;;;;5000894;28;20554;-49
2023/09/26 13:28:45;;;;;;;3.73;3.00;;;;;;;;;;5009696;28;20532;-49
2023/09/26 13:31:12;;;;;;;3.80;2.60;;;;;;;;;;5008147;28;20661;-49
2023/09/26 13:33:39;;;;;;;4.13;3.20;;;;;;;;;;4996100;28;20216;-49
2023/09/26 13:36:05;;;;;;;4.30;3.33;;;;;;;;;;5008352;28;20666;-48
2023/09/26 13:38:31;;;;;;;3.10;2.80;;;;;;;;;;5010161;28;20192;-48
2023/09/26 13:40:57;;;;;;;3.70;3.10;;;;;;;;;;5008537;28;20547;-52
2023/09/26 13:43:24;;;;;;;4.63;3.10;;;;;;;;;;5010360;28;20185;-52
2023/09/26 13:45:50;;;;;;;4.67;3.00;;;;;;;;;;5008166;28;20747;-52
2023/09/26 13:48:16;;;;;;;3.50;3.20;;;;;;;;;;5009441;28;20535;-52
2023/09/26 13:50:42;;;;;;;3.00;2.70;;;;;;;;;;5007366;28;20189;-52
2023/09/26 13:53:08;;;;;;;3.20;2.90;;;;;;;;;;5010092;28;20177;-52
2023/09/26 13:55:34;;;;;;;3.60;3.30;;;;;;;;;;5008419;28;20602;-51
2023/09/26 13:58:01;;;;;;;3.93;3.30;;;;;;;;;;5008674;28;20208;-53
2023/09/26 14:00:27;;;;;;;4.83;2.67;;;;;;;;;;5008343;28;20667;-53
2023/09/26 14:02:54;;;;;;;3.93;3.50;;;;;;;;;;5001464;28;20266;-53
2023/09/26 14:05:22;;;;;;;4.73;2.40;;;;;;;;;;5002900;28;20224;-52
2023/09/26 14:07:48;;;;;;;3.27;2.80;;;;;;;;;;5010154;28;20179;-51
2023/09/26 14:10:15;;;;;;;4.07;3.43;;;;;;;;;;5009183;28;20484;-51
2023/09/26 14:12:41;;;;;;;3.60;3.30;;;;;;;;;;5010122;28;20508;-51
2023/09/26 14:15:08;;;;;;;4.17;2.60;;;;;;;;;;4999371;28;20243;-53
2023/09/26 14:17:35;;;;;;;3.07;2.77;;;;;;;;;;4974144;28;20205;-52
2023/09/26 14:20:01;;;;;;;4.90;2.93;;;;;;;;;;5004038;28;20179;-51
2023/09/26 14:22:27;;;;;;;4.10;2.90;;;;;;;;;;5008190;28;20622;-52
2023/09/26 14:24:54;;;;;;;3.43;2.90;;;;;;;;;;5002108;28;20192;-52
2023/09/26 14:27:21;;;;;;;4.07;3.23;;;;;;;;;;5002512;28;20584;-51
2023/09/26 14:29:47;;;;;;;4.57;3.03;;;;;;;;;;5005499;28;20616;-51
2023/09/26 14:32:13;;;;;;;3.93;2.77;;;;;;;;;;5006724;28;20645;-52
2023/09/26 14:34:40;;;;;;;4.57;2.97;;;;;;;;;;4999765;28;20561;-52
2023/09/26 14:37:06;;;;;;;2.80;2.60;;;;;;;;;;5005171;28;20178;-52
2023/09/26 14:39:33;;;;;;;6.10;3.23;;;;;;;;;;5004960;28;20182;-51
2023/09/26 14:41:59;;;;;;;3.27;2.80;;;;;;;;;;5007253;28;20182;-51